sensor_id;sensor_type;location;lat;lon;timestamp;pressure;altitude;pressure_sealevel;temperature;humidity
71697;BME280;68167;59.120;37.898;2023-03-04T10:36:05;97567.63;;;25.45;20.03
71697;BME280;68167;59.120;37.898;2023-03-04T10:38:39;97545.56;;;25.36;20.14
71697;BME280;68167;59.120;37.898;2023-03-04T10:41:15;97559.66;;;25.58;20.42
71697;BME280;68167;59.120;37.898;2023-03-04T10:43:42;97554.16;;;25.65;20.44
71697;BME280;68167;59.120;37.898;2023-03-04T10:46:12;97538.56;;;25.66;20.07
71697;BME280;68167;59.120;37.898;2023-03-04T10:48:41;97525.72;;;25.63;19.97
71697;BME280;68167;59.120;37.898;2023-03-04T10:51:21;97553.00;;;25.89;19.52
71697;BME280;68167;59.120;37.898;2023-03-04T10:53:51;97505.81;;;25.69;19.87
71697;BME280;68167;59.120;37.898;2023-03-04T10:56:42;97535.28;;;26.01;19.82
71697;BME280;68167;59.120;37.898;2023-03-04T11:02:00;97540.09;;;26.17;19.38
71697;BME280;68167;59.120;37.898;2023-03-04T11:04:32;97538.78;;;26.25;19.35
71697;BME280;68167;59.120;37.898;2023-03-04T11:06:59;97535.28;;;26.24;19.29
71697;BME280;68167;59.120;37.898;2023-03-04T11:09:28;97509.38;;;26.13;18.96
71697;BME280;68167;59.120;37.898;2023-03-04T11:11:58;97530.94;;;26.27;19.12
71697;BME280;68167;59.120;37.898;2023-03-04T11:14:37;97489.56;;;26.09;19.19
71697;BME280;68167;59.120;37.898;2023-03-04T11:17:26;97534.16;;;26.45;19.03
71697;BME280;68167;59.120;37.898;2023-03-04T11:22:33;97472.38;;;26.12;19.01
71697;BME280;68167;59.120;37.898;2023-03-04T11:25:24;97525.09;;;26.52;18.95
71697;BME280;68167;59.120;37.898;2023-03-04T11:27:54;97491.13;;;26.33;19.15
71697;BME280;68167;59.120;37.898;2023-03-04T11:30:36;97516.06;;;26.55;19.16
71697;BME280;68167;59.120;37.898;2023-03-04T11:33:27;97522.63;;;26.57;18.74
71697;BME280;68167;59.120;37.898;2023-03-04T11:36:32;97524.97;;;26.59;18.80
71697;BME280;68167;59.120;37.898;2023-03-04T11:39:03;97490.22;;;26.40;18.68
71697;BME280;68167;59.120;37.898;2023-03-04T11:41:34;97515.16;;;26.62;18.71
71697;BME280;68167;59.120;37.898;2023-03-04T11:44:04;97481.63;;;26.41;18.52
71697;BME280;68167;59.120;37.898;2023-03-04T11:47:02;97503.59;;;26.54;18.40
71697;BME280;68167;59.120;37.898;2023-03-04T11:55:28;97513.09;;;26.66;18.02
71697;BME280;68167;59.120;37.898;2023-03-04T11:58:05;97509.19;;;26.67;18.22
71697;BME280;68167;59.120;37.898;2023-03-04T12:01:07;97506.47;;;26.67;18.40
71697;BME280;68167;59.120;37.898;2023-03-04T12:06:48;97493.31;;;26.62;18.33
71697;BME280;68167;59.120;37.898;2023-03-04T12:14:56;97496.66;;;26.49;18.34
71697;BME280;68167;59.120;37.898;2023-03-04T12:26:24;97483.63;;;26.37;18.42
71697;BME280;68167;59.120;37.898;2023-03-04T12:31:40;97456.72;;;26.16;18.29
71697;BME280;68167;59.120;37.898;2023-03-04T12:34:34;97476.31;;;26.31;18.28
71697;BME280;68167;59.120;37.898;2023-03-04T12:37:20;97495.25;;;26.41;18.22
71697;BME280;68167;59.120;37.898;2023-03-04T12:45:37;97467.34;;;26.34;18.62
71697;BME280;68167;59.120;37.898;2023-03-04T13:03:20;97450.41;;;20.87;18.16
71697;BME280;68167;59.120;37.898;2023-03-04T13:16:50;97444.22;;;13.28;24.32
71697;BME280;68167;59.120;37.898;2023-03-04T13:43:46;97459.22;;;4.47;35.67
71697;BME280;68167;59.120;37.898;2023-03-04T13:51:30;97469.13;;;3.67;36.15
71697;BME280;68167;59.120;37.898;2023-03-04T13:56:36;97469.75;;;3.33;36.44
71697;BME280;68167;59.120;37.898;2023-03-04T13:59:29;97470.59;;;3.18;37.17
71697;BME280;68167;59.120;37.898;2023-03-04T14:04:42;97450.13;;;2.85;39.84
71697;BME280;68167;59.120;37.898;2023-03-04T14:07:23;97423.66;;;2.51;38.47
71697;BME280;68167;59.120;37.898;2023-03-04T14:10:19;97455.41;;;2.64;38.52
71697;BME280;68167;59.120;37.898;2023-03-04T14:12:59;97453.31;;;2.56;38.66
71697;BME280;68167;59.120;37.898;2023-03-04T14:15:28;97457.50;;;2.47;41.11
71697;BME280;68167;59.120;37.898;2023-03-04T14:18:02;97464.59;;;2.42;39.79
71697;BME280;68167;59.120;37.898;2023-03-04T14:20:37;97398.94;;;1.91;40.26
71697;BME280;68167;59.120;37.898;2023-03-04T14:26:14;97474.31;;;2.41;40.58
71697;BME280;68167;59.120;37.898;2023-03-04T14:28:49;97473.78;;;2.34;42.00
71697;BME280;68167;59.120;37.898;2023-03-04T14:31:20;97459.59;;;2.30;42.86
71697;BME280;68167;59.120;37.898;2023-03-04T14:33:53;97392.88;;;1.80;41.91
71697;BME280;68167;59.120;37.898;2023-03-04T14:36:32;97450.63;;;2.16;42.67
71697;BME280;68167;59.120;37.898;2023-03-04T14:39:03;97468.78;;;2.27;43.53
71697;BME280;68167;59.120;37.898;2023-03-04T14:41:36;97473.22;;;2.27;43.60
71697;BME280;68167;59.120;37.898;2023-03-04T14:44:17;97488.97;;;2.27;43.74
71697;BME280;68167;59.120;37.898;2023-03-04T14:46:55;97441.41;;;1.98;43.49
71697;BME280;68167;59.120;37.898;2023-03-04T14:49:22;97454.53;;;1.98;44.21
71697;BME280;68167;59.120;37.898;2023-03-04T14:51:51;97460.56;;;1.98;44.40
71697;BME280;68167;59.120;37.898;2023-03-04T14:54:39;97436.91;;;1.73;42.79
71697;BME280;68167;59.120;37.898;2023-03-04T14:57:19;97485.25;;;2.03;43.84
71697;BME280;68167;59.120;37.898;2023-03-04T14:59:47;97484.44;;;2.02;45.27
71697;BME280;68167;59.120;37.898;2023-03-04T15:02:26;97438.75;;;1.78;44.90
71697;BME280;68167;59.120;37.898;2023-03-04T15:05:08;97424.56;;;1.63;46.26
71697;BME280;68167;59.120;37.898;2023-03-04T15:10:36;97485.25;;;1.92;46.00
71697;BME280;68167;59.120;37.898;2023-03-04T15:13:05;97445.00;;;1.61;46.70
71697;BME280;68167;59.120;37.898;2023-03-04T15:18:25;97465.50;;;1.75;45.47
71697;BME280;68167;59.120;37.898;2023-03-04T15:20:54;97357.72;;;0.93;47.53
71697;BME280;68167;59.120;37.898;2023-03-04T15:23:21;97477.53;;;1.65;47.32
71697;BME280;68167;59.120;37.898;2023-03-04T15:26:09;97459.38;;;1.54;45.93
71697;BME280;68167;59.120;37.898;2023-03-04T15:28:37;97453.81;;;1.40;47.57
71697;BME280;68167;59.120;37.898;2023-03-04T15:31:04;97476.47;;;1.61;47.92
71697;BME280;68167;59.120;37.898;2023-03-04T15:33:31;97422.84;;;1.27;48.66
71697;BME280;68167;59.120;37.898;2023-03-04T15:35:59;97393.63;;;0.98;48.85
71697;BME280;68167;59.120;37.898;2023-03-04T15:38:28;97468.78;;;1.45;49.09
71697;BME280;68167;59.120;37.898;2023-03-04T15:40:55;97419.66;;;1.15;48.70
71697;BME280;68167;59.120;37.898;2023-03-04T15:43:23;97469.84;;;1.49;49.17
71697;BME280;68167;59.120;37.898;2023-03-04T15:45:50;97454.59;;;1.41;49.18
71697;BME280;68167;59.120;37.898;2023-03-04T15:48:17;97472.75;;;1.52;49.22
71697;BME280;68167;59.120;37.898;2023-03-04T15:50:52;97461.44;;;1.47;49.36
71697;BME280;68167;59.120;37.898;2023-03-04T15:53:33;97465.09;;;1.46;49.19
71697;BME280;68167;59.120;37.898;2023-03-04T15:56:02;97473.50;;;1.48;49.66
71697;BME280;68167;59.120;37.898;2023-03-04T15:58:29;97467.44;;;1.42;50.26
71697;BME280;68167;59.120;37.898;2023-03-04T16:00:57;97465.09;;;1.41;50.60
71697;BME280;68167;59.120;37.898;2023-03-04T16:03:23;97462.22;;;1.47;50.57
71697;BME280;68167;59.120;37.898;2023-03-04T16:05:51;97435.69;;;1.28;50.69
71697;BME280;68167;59.120;37.898;2023-03-04T16:08:19;97424.41;;;1.23;50.60
71697;BME280;68167;59.120;37.898;2023-03-04T16:10:46;97469.34;;;1.52;50.69
71697;BME280;68167;59.120;37.898;2023-03-04T16:13:15;97479.59;;;1.58;51.03
71697;BME280;68167;59.120;37.898;2023-03-04T16:15:43;97440.19;;;1.38;51.15
71697;BME280;68167;59.120;37.898;2023-03-04T16:18:10;97455.66;;;1.45;51.07
71697;BME280;68167;59.120;37.898;2023-03-04T16:20:38;97481.41;;;1.58;51.67
71697;BME280;68167;59.120;37.898;2023-03-04T16:23:10;97468.03;;;1.54;51.46
71697;BME280;68167;59.120;37.898;2023-03-04T16:25:37;97442.81;;;1.43;51.30
71697;BME280;68167;59.120;37.898;2023-03-04T16:28:04;97426.78;;;1.24;51.23
71697;BME280;68167;59.120;37.898;2023-03-04T16:30:31;97458.31;;;1.50;51.79
71697;BME280;68167;59.120;37.898;2023-03-04T16:32:57;97454.94;;;1.54;51.22
71697;BME280;68167;59.120;37.898;2023-03-04T16:35:24;97422.88;;;1.37;51.63
71697;BME280;68167;59.120;37.898;2023-03-04T16:37:57;97411.34;;;1.28;51.52
71697;BME280;68167;59.120;37.898;2023-03-04T16:40:29;97460.44;;;1.58;51.63
71697;BME280;68167;59.120;37.898;2023-03-04T16:42:56;97460.75;;;1.67;58.23
71697;BME280;68167;59.120;37.898;2023-03-04T16:45:25;97455.53;;;1.72;54.44
71697;BME280;68167;59.120;37.898;2023-03-04T16:47:52;97460.00;;;1.76;53.98
71697;BME280;68167;59.120;37.898;2023-03-04T16:50:21;97467.56;;;1.62;53.77
71697;BME280;68167;59.120;37.898;2023-03-04T16:52:53;97469.34;;;1.52;54.10
71697;BME280;68167;59.120;37.898;2023-03-04T16:55:25;97421.69;;;1.08;54.02
71697;BME280;68167;59.120;37.898;2023-03-04T16:57:53;97401.38;;;0.83;54.80
71697;BME280;68167;59.120;37.898;2023-03-04T17:00:21;97388.13;;;0.52;54.46
71697;BME280;68167;59.120;37.898;2023-03-04T17:02:54;97465.31;;;0.87;54.71
71697;BME280;68167;59.120;37.898;2023-03-04T17:05:22;97465.50;;;0.80;55.77
71697;BME280;68167;59.120;37.898;2023-03-04T17:07:49;97466.22;;;0.71;55.58
71697;BME280;68167;59.120;37.898;2023-03-04T17:10:15;97476.16;;;0.63;56.46
71697;BME280;68167;59.120;37.898;2023-03-04T17:12:42;97471.88;;;0.52;56.32
71697;BME280;68167;59.120;37.898;2023-03-04T17:15:11;97475.47;;;0.46;56.52
71697;BME280;68167;59.120;37.898;2023-03-04T17:17:38;97489.59;;;0.45;57.42
71697;BME280;68167;59.120;37.898;2023-03-04T17:20:07;97479.28;;;0.33;57.31
71697;BME280;68167;59.120;37.898;2023-03-04T17:22:33;97480.13;;;0.39;57.40
71697;BME280;68167;59.120;37.898;2023-03-04T17:25:00;97464.47;;;0.17;57.42
71697;BME280;68167;59.120;37.898;2023-03-04T17:27:29;97420.88;;;-0.04;57.67
71697;BME280;68167;59.120;37.898;2023-03-04T17:29:56;97466.34;;;0.22;58.25
71697;BME280;68167;59.120;37.898;2023-03-04T17:32:22;97479.72;;;0.25;57.78
71697;BME280;68167;59.120;37.898;2023-03-04T17:34:49;97428.97;;;-0.06;57.64
71697;BME280;68167;59.120;37.898;2023-03-04T17:37:15;97459.78;;;0.19;57.57
71697;BME280;68167;59.120;37.898;2023-03-04T17:39:42;97419.06;;;-0.04;58.07
71697;BME280;68167;59.120;37.898;2023-03-04T17:42:08;97419.84;;;-0.03;57.71
71697;BME280;68167;59.120;37.898;2023-03-04T17:44:35;97430.63;;;0.06;58.00
71697;BME280;68167;59.120;37.898;2023-03-04T17:47:01;97452.22;;;0.23;58.10
71697;BME280;68167;59.120;37.898;2023-03-04T17:49:27;97438.03;;;0.14;58.00
71697;BME280;68167;59.120;37.898;2023-03-04T17:51:54;97435.41;;;0.14;57.67
71697;BME280;68167;59.120;37.898;2023-03-04T17:54:20;97453.03;;;0.23;57.64
71697;BME280;68167;59.120;37.898;2023-03-04T17:56:46;97414.13;;;0.00;57.47
71697;BME280;68167;59.120;37.898;2023-03-04T17:59:14;97456.69;;;0.22;57.39
71697;BME280;68167;59.120;37.898;2023-03-04T18:01:41;97449.63;;;0.23;57.57
71697;BME280;68167;59.120;37.898;2023-03-04T18:04:11;97438.47;;;0.06;57.55
71697;BME280;68167;59.120;37.898;2023-03-04T18:06:38;97400.31;;;-0.22;57.46
71697;BME280;68167;59.120;37.898;2023-03-04T18:09:05;97447.41;;;0.10;57.61
71697;BME280;68167;59.120;37.898;2023-03-04T18:11:33;97462.00;;;0.06;57.62
71697;BME280;68167;59.120;37.898;2023-03-04T18:14:15;97403.09;;;-0.29;56.64
71697;BME280;68167;59.120;37.898;2023-03-04T18:20:31;97421.03;;;-0.16;57.76
71697;BME280;68167;59.120;37.898;2023-03-04T18:22:58;97443.19;;;0.09;57.94
71697;BME280;68167;59.120;37.898;2023-03-04T18:25:24;97376.91;;;-0.34;57.91
71697;BME280;68167;59.120;37.898;2023-03-04T18:28:11;97423.56;;;0.06;57.92
71697;BME280;68167;59.120;37.898;2023-03-04T18:30:37;97458.19;;;0.18;58.51
71697;BME280;68167;59.120;37.898;2023-03-04T18:33:04;97381.81;;;-0.16;58.06
71697;BME280;68167;59.120;37.898;2023-03-04T18:35:30;97437.56;;;0.22;58.78
71697;BME280;68167;59.120;37.898;2023-03-04T18:37:56;97441.28;;;0.26;59.05
71697;BME280;68167;59.120;37.898;2023-03-04T18:40:25;97421.53;;;0.13;59.28
71697;BME280;68167;59.120;37.898;2023-03-04T18:42:55;97420.47;;;0.09;59.08
71697;BME280;68167;59.120;37.898;2023-03-04T18:45:25;97383.38;;;-0.15;59.29
71697;BME280;68167;59.120;37.898;2023-03-04T18:47:52;97447.78;;;0.23;59.36
71697;BME280;68167;59.120;37.898;2023-03-04T18:50:19;97454.56;;;0.19;59.75
71697;BME280;68167;59.120;37.898;2023-03-04T18:52:47;97400.16;;;-0.11;59.43
71697;BME280;68167;59.120;37.898;2023-03-04T18:55:14;97436.69;;;0.11;59.68
71697;BME280;68167;59.120;37.898;2023-03-04T18:57:43;97421.44;;;0.03;59.92
71697;BME280;68167;59.120;37.898;2023-03-04T19:00:16;97408.75;;;-0.15;60.04
71697;BME280;68167;59.120;37.898;2023-03-04T19:02:47;97398.59;;;-0.12;60.59
71697;BME280;68167;59.120;37.898;2023-03-04T19:05:18;97409.88;;;-0.06;60.85
71697;BME280;68167;59.120;37.898;2023-03-04T19:07:45;97414.03;;;-0.10;61.01
71697;BME280;68167;59.120;37.898;2023-03-04T19:10:12;97433.47;;;0.04;60.64
71697;BME280;68167;59.120;37.898;2023-03-04T19:12:39;97435.06;;;0.05;60.38
71697;BME280;68167;59.120;37.898;2023-03-04T19:15:06;97373.03;;;-0.31;60.87
71697;BME280;68167;59.120;37.898;2023-03-04T19:17:35;97437.69;;;0.05;61.04
71697;BME280;68167;59.120;37.898;2023-03-04T19:20:05;97433.00;;;0.07;60.41
71697;BME280;68167;59.120;37.898;2023-03-04T19:22:32;97404.91;;;-0.08;60.19
71697;BME280;68167;59.120;37.898;2023-03-04T19:24:58;97425.09;;;0.02;60.00
71697;BME280;68167;59.120;37.898;2023-03-04T19:27:25;97423.50;;;0.01;60.16
71697;BME280;68167;59.120;37.898;2023-03-04T19:29:51;97411.47;;;-0.05;60.29
71697;BME280;68167;59.120;37.898;2023-03-04T19:32:19;97426.47;;;0.10;60.38
71697;BME280;68167;59.120;37.898;2023-03-04T19:34:46;97415.94;;;-0.01;60.37
71697;BME280;68167;59.120;37.898;2023-03-04T19:37:13;97386.25;;;-0.16;59.67
71697;BME280;68167;59.120;37.898;2023-03-04T19:39:41;97404.41;;;-0.05;60.22
71697;BME280;68167;59.120;37.898;2023-03-04T19:42:12;97416.47;;;0.02;60.27
71697;BME280;68167;59.120;37.898;2023-03-04T19:44:42;97392.22;;;-0.21;59.97
71697;BME280;68167;59.120;37.898;2023-03-04T19:47:10;97380.66;;;-0.25;60.10
71697;BME280;68167;59.120;37.898;2023-03-04T19:49:38;97420.34;;;-0.06;60.11
71697;BME280;68167;59.120;37.898;2023-03-04T19:52:05;97409.81;;;-0.11;59.90
71697;BME280;68167;59.120;37.898;2023-03-04T19:54:32;97407.16;;;-0.16;60.16
71697;BME280;68167;59.120;37.898;2023-03-04T19:56:58;97420.81;;;-0.09;59.97
71697;BME280;68167;59.120;37.898;2023-03-04T20:02:47;97401.03;;;-0.27;59.46
71697;BME280;68167;59.120;37.898;2023-03-04T20:05:14;97364.19;;;-0.52;60.17
71697;BME280;68167;59.120;37.898;2023-03-04T20:07:41;97404.94;;;-0.29;60.21
71697;BME280;68167;59.120;37.898;2023-03-04T20:10:09;97394.19;;;-0.33;59.79
71697;BME280;68167;59.120;37.898;2023-03-04T20:12:36;97423.59;;;-0.21;60.42
71697;BME280;68167;59.120;37.898;2023-03-04T20:15:05;97409.47;;;-0.20;60.15
71697;BME280;68167;59.120;37.898;2023-03-04T20:17:32;97408.88;;;-0.27;60.37
71697;BME280;68167;59.120;37.898;2023-03-04T20:19:59;97392.59;;;-0.34;60.35
71697;BME280;68167;59.120;37.898;2023-03-04T20:22:25;97378.94;;;-0.41;59.98
71697;BME280;68167;59.120;37.898;2023-03-04T20:24:53;97400.25;;;-0.27;60.32
71697;BME280;68167;59.120;37.898;2023-03-04T20:27:20;97399.25;;;-0.21;60.54
71697;BME280;68167;59.120;37.898;2023-03-04T20:29:46;97405.28;;;-0.21;60.68
71697;BME280;68167;59.120;37.898;2023-03-04T20:32:15;97406.91;;;-0.15;60.41
71697;BME280;68167;59.120;37.898;2023-03-04T20:34:42;97403.50;;;-0.15;60.44
71697;BME280;68167;59.120;37.898;2023-03-04T20:37:09;97400.41;;;-0.12;60.85
71697;BME280;68167;59.120;37.898;2023-03-04T20:39:35;97396.50;;;-0.10;60.70
71697;BME280;68167;59.120;37.898;2023-03-04T20:42:02;97386.50;;;-0.18;60.24
71697;BME280;68167;59.120;37.898;2023-03-04T20:44:29;97387.94;;;-0.05;60.69
71697;BME280;68167;59.120;37.898;2023-03-04T20:46:56;97397.16;;;0.08;60.57
71697;BME280;68167;59.120;37.898;2023-03-04T20:49:25;97400.88;;;0.12;60.66
71697;BME280;68167;59.120;37.898;2023-03-04T20:51:53;97384.84;;;0.03;60.21
71697;BME280;68167;59.120;37.898;2023-03-04T20:54:21;97401.91;;;0.11;60.10
71697;BME280;68167;59.120;37.898;2023-03-04T20:56:48;97377.19;;;-0.09;60.06
71697;BME280;68167;59.120;37.898;2023-03-04T20:59:15;97394.00;;;0.06;60.34
71697;BME280;68167;59.120;37.898;2023-03-04T21:01:43;97347.19;;;-0.28;60.17
71697;BME280;68167;59.120;37.898;2023-03-04T21:04:09;97383.50;;;-0.05;60.41
71697;BME280;68167;59.120;37.898;2023-03-04T21:06:36;97388.47;;;-0.03;60.35
71697;BME280;68167;59.120;37.898;2023-03-04T21:09:06;97311.16;;;-0.53;60.03
71697;BME280;68167;59.120;37.898;2023-03-04T21:11:34;97400.03;;;0.06;60.34
71697;BME280;68167;59.120;37.898;2023-03-04T21:14:18;97399.78;;;0.08;60.30
71697;BME280;68167;59.120;37.898;2023-03-04T21:16:51;97397.91;;;0.03;60.36
71697;BME280;68167;59.120;37.898;2023-03-04T21:19:20;97334.88;;;-0.32;60.53
71697;BME280;68167;59.120;37.898;2023-03-04T21:21:50;97388.78;;;0.06;60.52
71697;BME280;68167;59.120;37.898;2023-03-04T21:24:20;97358.03;;;-0.14;60.71
71697;BME280;68167;59.120;37.898;2023-03-04T21:26:47;97401.91;;;0.11;60.63
71697;BME280;68167;59.120;37.898;2023-03-04T21:29:19;97398.75;;;0.09;60.76
71697;BME280;68167;59.120;37.898;2023-03-04T21:31:51;97370.91;;;-0.08;60.73
71697;BME280;68167;59.120;37.898;2023-03-04T21:34:36;97383.97;;;-0.08;60.73
71697;BME280;68167;59.120;37.898;2023-03-04T21:37:04;97399.13;;;-0.10;60.69
71697;BME280;68167;59.120;37.898;2023-03-04T21:39:31;97390.59;;;-0.27;61.28
71697;BME280;68167;59.120;37.898;2023-03-04T21:41:59;97401.38;;;-0.18;60.99
71697;BME280;68167;59.120;37.898;2023-03-04T21:44:26;97396.84;;;-0.28;61.27
71697;BME280;68167;59.120;37.898;2023-03-04T21:46:57;97392.59;;;-0.34;61.51
71697;BME280;68167;59.120;37.898;2023-03-04T21:49:24;97389.63;;;-0.43;61.51
71697;BME280;68167;59.120;37.898;2023-03-04T21:51:51;97335.13;;;-0.83;61.49
71697;BME280;68167;59.120;37.898;2023-03-04T21:54:17;97370.59;;;-0.65;61.74
71697;BME280;68167;59.120;37.898;2023-03-04T21:56:44;97371.09;;;-0.68;61.67
71697;BME280;68167;59.120;37.898;2023-03-04T21:59:12;97394.25;;;-0.50;61.35
71697;BME280;68167;59.120;37.898;2023-03-04T22:01:40;97391.59;;;-0.55;61.76
71697;BME280;68167;59.120;37.898;2023-03-04T22:04:07;97388.19;;;-0.55;62.48
71697;BME280;68167;59.120;37.898;2023-03-04T22:06:36;97351.84;;;-0.84;62.45
71697;BME280;68167;59.120;37.898;2023-03-04T22:09:03;97306.13;;;-1.08;62.32
71697;BME280;68167;59.120;37.898;2023-03-04T22:11:30;97397.91;;;-0.51;62.48
71697;BME280;68167;59.120;37.898;2023-03-04T22:13:59;97407.56;;;-0.51;63.23
71697;BME280;68167;59.120;37.898;2023-03-04T22:16:26;97391.59;;;-0.55;62.75
71697;BME280;68167;59.120;37.898;2023-03-04T22:18:53;97398.69;;;-0.50;63.00
71697;BME280;68167;59.120;37.898;2023-03-04T22:21:20;97371.28;;;-0.75;63.00
71697;BME280;68167;59.120;37.898;2023-03-04T22:23:47;97400.69;;;-0.57;62.83
71697;BME280;68167;59.120;37.898;2023-03-04T22:26:21;97381.47;;;-0.73;63.34
71697;BME280;68167;59.120;37.898;2023-03-04T22:28:55;97409.78;;;-0.65;63.02
71697;BME280;68167;59.120;37.898;2023-03-04T22:31:30;97396.28;;;-0.79;62.81
71697;BME280;68167;59.120;37.898;2023-03-04T22:33:59;97318.09;;;-1.34;63.40
71697;BME280;68167;59.120;37.898;2023-03-04T22:36:27;97387.72;;;-0.96;63.09
71697;BME280;68167;59.120;37.898;2023-03-04T22:38:54;97404.38;;;-0.80;63.54
71697;BME280;68167;59.120;37.898;2023-03-04T22:41:20;97395.19;;;-0.83;63.52
71697;BME280;68167;59.120;37.898;2023-03-04T22:43:47;97348.50;;;-1.01;63.83
71697;BME280;68167;59.120;37.898;2023-03-04T22:46:17;97395.25;;;-0.78;64.00
71697;BME280;68167;59.120;37.898;2023-03-04T22:48:53;97400.25;;;-0.76;63.91
71697;BME280;68167;59.120;37.898;2023-03-04T22:51:20;97368.59;;;-1.02;63.88
71697;BME280;68167;59.120;37.898;2023-03-04T22:53:48;97321.78;;;-1.30;64.13
71697;BME280;68167;59.120;37.898;2023-03-04T22:56:15;97394.41;;;-0.83;64.39
71697;BME280;68167;59.120;37.898;2023-03-04T22:58:42;97387.28;;;-0.88;64.75
71697;BME280;68167;59.120;37.898;2023-03-04T23:01:10;97393.06;;;-0.86;64.77
71697;BME280;68167;59.120;37.898;2023-03-04T23:03:38;97355.34;;;-1.17;64.58
71697;BME280;68167;59.120;37.898;2023-03-04T23:06:10;97393.38;;;-0.82;64.56
71697;BME280;68167;59.120;37.898;2023-03-04T23:08:38;97355.47;;;-1.07;64.69
71697;BME280;68167;59.120;37.898;2023-03-04T23:11:15;97393.91;;;-0.80;64.12
71697;BME280;68167;59.120;37.898;2023-03-04T23:13:42;97382.94;;;-0.82;64.49
71697;BME280;68167;59.120;37.898;2023-03-04T23:16:10;97395.81;;;-0.76;64.32
71697;BME280;68167;59.120;37.898;2023-03-04T23:18:38;97364.47;;;-0.97;64.87
71697;BME280;68167;59.120;37.898;2023-03-04T23:21:14;97400.66;;;-0.84;64.82
71697;BME280;68167;59.120;37.898;2023-03-04T23:23:41;97381.94;;;-0.98;64.96
71697;BME280;68167;59.120;37.898;2023-03-04T23:26:34;97378.78;;;-1.00;64.85
71697;BME280;68167;59.120;37.898;2023-03-04T23:29:03;97375.81;;;-1.09;64.82
71697;BME280;68167;59.120;37.898;2023-03-04T23:31:31;97379.44;;;-1.10;65.72
71697;BME280;68167;59.120;37.898;2023-03-04T23:33:58;97389.47;;;-1.02;65.91
71697;BME280;68167;59.120;37.898;2023-03-04T23:36:30;97385.28;;;-1.03;66.05
71697;BME280;68167;59.120;37.898;2023-03-04T23:38:57;97395.72;;;-1.03;66.06
71697;BME280;68167;59.120;37.898;2023-03-04T23:41:27;97387.34;;;-1.05;66.09
71697;BME280;68167;59.120;37.898;2023-03-04T23:43:55;97384.25;;;-1.02;65.60
71697;BME280;68167;59.120;37.898;2023-03-04T23:46:22;97369.25;;;-1.11;66.10
71697;BME280;68167;59.120;37.898;2023-03-04T23:48:49;97376.84;;;-1.10;66.24
71697;BME280;68167;59.120;37.898;2023-03-04T23:51:26;97303.59;;;-1.63;65.58
71697;BME280;68167;59.120;37.898;2023-03-04T23:53:54;97382.13;;;-1.05;66.52
71697;BME280;68167;59.120;37.898;2023-03-04T23:56:23;97378.41;;;-1.09;66.11
71697;BME280;68167;59.120;37.898;2023-03-04T23:58:50;97378.72;;;-1.05;65.69
